createdAt,value
2022-11-10T00:01:07.626Z,99.98
2022-11-10T00:03:35.294Z,98.85
2022-11-10T00:06:03.901Z,99.17
2022-11-10T00:08:30.532Z,99.56
2022-11-10T00:11:01.912Z,98.55
2022-11-10T00:13:31.267Z,98.97
2022-11-10T00:16:23.986Z,98.81
2022-11-10T00:18:51.098Z,97.98
2022-11-10T00:21:18.273Z,99.09
2022-11-10T00:23:47.600Z,99.07
2022-11-10T00:26:17.714Z,98.67
2022-11-10T00:28:45.098Z,98.51
2022-11-10T00:31:17.130Z,98.90
2022-11-10T00:33:44.656Z,98.56
2022-11-10T00:36:11.181Z,98.49
2022-11-10T00:38:37.828Z,98.83
2022-11-10T00:41:05.029Z,99.57
2022-11-10T00:43:32.202Z,98.97
2022-11-10T00:45:59.032Z,97.83
2022-11-10T00:48:25.824Z,98.33
2022-11-10T00:50:52.829Z,98.57
2022-11-10T00:53:19.914Z,99.02
2022-11-10T00:55:46.722Z,98.29
2022-11-10T00:58:13.468Z,97.98
2022-11-10T01:00:40.510Z,98.58
2022-11-10T01:03:07.123Z,98.38
2022-11-10T01:05:37.786Z,98.85
2022-11-10T01:08:04.731Z,98.78
2022-11-10T01:10:31.492Z,99.31
2022-11-10T01:12:58.325Z,99.02
2022-11-10T01:15:27.754Z,99.00
2022-11-10T01:17:55.584Z,98.88
2022-11-10T01:20:22.930Z,99.25
2022-11-10T01:22:49.511Z,98.41
2022-11-10T01:25:16.461Z,98.12
2022-11-10T01:27:43.001Z,98.22
2022-11-10T01:30:09.886Z,97.82
2022-11-10T01:32:36.481Z,98.42
2022-11-10T01:35:03.040Z,98.00
2022-11-10T01:37:29.562Z,98.52
2022-11-10T01:39:56.106Z,97.76
2022-11-10T01:42:25.794Z,98.55
2022-11-10T01:45:24.309Z,98.38
2022-11-10T01:47:54.025Z,97.72
2022-11-10T01:50:22.519Z,97.82
2022-11-10T01:52:50.986Z,97.38
2022-11-10T01:55:17.796Z,98.22
2022-11-10T01:57:45.191Z,97.64
2022-11-10T02:00:11.993Z,97.88
2022-11-10T02:02:43.902Z,98.38
2022-11-10T02:05:10.415Z,97.62
2022-11-10T02:07:37.024Z,97.95
2022-11-10T02:10:04.888Z,97.64
2022-11-10T02:12:38.386Z,98.29
2022-11-10T02:15:06.315Z,97.03
2022-11-10T02:17:32.966Z,97.45
2022-11-10T02:20:01.065Z,97.56
2022-11-10T02:22:27.645Z,98.34
2022-11-10T02:24:54.258Z,97.08
2022-11-10T02:27:20.888Z,97.72
2022-11-10T02:29:47.507Z,99.32
2022-11-10T02:32:14.055Z,100.00
2022-11-10T02:34:40.929Z,100.00
2022-11-10T02:37:07.481Z,99.51
2022-11-10T02:39:34.031Z,99.63
2022-11-10T02:42:00.680Z,99.51
2022-11-10T02:44:27.224Z,98.98
2022-11-10T02:46:53.870Z,99.26
2022-11-10T02:49:20.523Z,98.99
2022-11-10T02:51:47.094Z,98.62
2022-11-10T02:54:13.693Z,100.00
2022-11-10T02:56:40.239Z,100.00
2022-11-10T02:59:06.900Z,100.00
2022-11-10T03:01:33.459Z,100.00
2022-11-10T03:04:00.213Z,100.00
2022-11-10T03:06:26.713Z,100.00
2022-11-10T03:08:53.319Z,100.00
2022-11-10T03:11:20.160Z,100.00
2022-11-10T03:14:00.917Z,100.00
2022-11-10T03:16:28.385Z,100.00
2022-11-10T03:18:54.903Z,100.00
2022-11-10T03:21:24.244Z,100.00
2022-11-10T03:23:51.026Z,100.00
2022-11-10T03:26:18.728Z,100.00
2022-11-10T03:28:48.154Z,100.00
2022-11-10T03:31:14.834Z,100.00
2022-11-10T03:33:41.475Z,100.00
2022-11-10T03:36:08.215Z,100.00
2022-11-10T03:38:34.812Z,100.00
2022-11-10T03:41:18.687Z,100.00
2022-11-10T03:43:46.673Z,100.00
2022-11-10T03:46:13.154Z,100.00
2022-11-10T03:48:39.809Z,100.00
2022-11-10T03:51:06.774Z,100.00
2022-11-10T03:53:33.379Z,100.00
2022-11-10T03:56:01.560Z,100.00
2022-11-10T03:58:28.195Z,100.00
2022-11-10T04:00:55.195Z,100.00
2022-11-10T04:03:22.190Z,100.00
2022-11-10T04:06:07.343Z,100.00
2022-11-10T04:08:52.832Z,100.00
2022-11-10T04:11:38.475Z,100.00
2022-11-10T04:14:24.032Z,100.00
2022-11-10T04:16:50.568Z,100.00
2022-11-10T04:19:17.110Z,100.00
2022-11-10T04:21:43.607Z,100.00
2022-11-10T04:24:10.154Z,100.00
2022-11-10T04:26:40.709Z,100.00
2022-11-10T04:29:11.241Z,100.00
2022-11-10T04:31:39.468Z,100.00
2022-11-10T04:34:07.837Z,100.00
2022-11-10T04:36:35.995Z,100.00
2022-11-10T04:39:03.944Z,100.00
2022-11-10T04:41:30.993Z,100.00
2022-11-10T04:43:58.715Z,100.00
2022-11-10T04:46:30.158Z,100.00
2022-11-10T04:48:57.188Z,100.00
2022-11-10T04:51:25.932Z,100.00
2022-11-10T04:53:52.571Z,100.00
2022-11-10T04:56:20.852Z,100.00
2022-11-10T04:58:47.501Z,100.00
2022-11-10T05:01:16.001Z,100.00
2022-11-10T05:03:43.290Z,100.00
2022-11-10T05:06:10.397Z,100.00
2022-11-10T05:08:38.316Z,100.00
2022-11-10T05:11:05.665Z,100.00
2022-11-10T05:13:33.121Z,100.00
2022-11-10T05:16:00.048Z,100.00
2022-11-10T05:18:26.724Z,100.00
2022-11-10T05:20:56.447Z,100.00
2022-11-10T05:23:38.187Z,100.00
2022-11-10T05:26:16.715Z,100.00
2022-11-10T05:28:44.955Z,100.00
2022-11-10T05:31:12.002Z,100.00
2022-11-10T05:33:39.119Z,100.00
2022-11-10T05:36:06.873Z,100.00
2022-11-10T05:38:34.394Z,100.00
2022-11-10T05:41:04.997Z,100.00
2022-11-10T05:43:31.600Z,100.00
2022-11-10T05:45:58.193Z,100.00
2022-11-10T05:48:24.834Z,100.00
2022-11-10T05:50:51.332Z,100.00
2022-11-10T05:53:17.834Z,100.00
2022-11-10T05:55:44.511Z,100.00
2022-11-10T05:58:11.106Z,100.00
2022-11-10T06:00:37.656Z,100.00
2022-11-10T06:06:57.843Z,100.00
2022-11-10T06:09:24.517Z,100.00
2022-11-10T06:11:54.009Z,100.00
2022-11-10T06:14:20.738Z,100.00
2022-11-10T06:16:47.782Z,100.00
2022-11-10T06:19:22.143Z,100.00
2022-11-10T06:21:57.071Z,100.00
2022-11-10T06:24:27.000Z,100.00
2022-11-10T06:26:56.323Z,100.00
2022-11-10T06:29:26.948Z,100.00
2022-11-10T06:31:53.631Z,100.00
2022-11-10T06:34:20.207Z,100.00
2022-11-10T06:36:46.799Z,100.00
2022-11-10T06:39:13.771Z,100.00
2022-11-10T06:41:40.491Z,100.00
2022-11-10T06:44:07.137Z,100.00
2022-11-10T06:46:37.015Z,100.00
2022-11-10T06:49:07.705Z,100.00
2022-11-10T06:51:34.335Z,100.00
2022-11-10T06:54:00.903Z,100.00
2022-11-10T06:56:27.437Z,100.00
2022-11-10T06:58:54.137Z,100.00
2022-11-10T07:01:28.789Z,100.00
2022-11-10T07:04:18.185Z,100.00
2022-11-10T07:06:42.458Z,100.00
2022-11-10T07:09:09.039Z,100.00
2022-11-10T07:11:35.702Z,100.00
2022-11-10T07:14:05.060Z,100.00
2022-11-10T07:16:31.847Z,100.00
2022-11-10T07:18:58.575Z,100.00
2022-11-10T07:21:25.072Z,100.00
2022-11-10T07:23:53.834Z,100.00
2022-11-10T07:26:20.410Z,100.00
2022-11-10T07:28:46.984Z,100.00
2022-11-10T07:31:20.421Z,100.00
2022-11-10T07:33:51.912Z,100.00
2022-11-10T07:36:21.642Z,100.00
2022-11-10T07:38:49.300Z,100.00
2022-11-10T07:41:15.831Z,100.00
2022-11-10T07:43:42.435Z,100.00
2022-11-10T07:46:09.385Z,100.00
2022-11-10T07:48:38.846Z,100.00
2022-11-10T07:51:05.495Z,100.00
2022-11-10T07:53:32.209Z,100.00
2022-11-10T07:55:58.836Z,100.00
2022-11-10T07:58:25.394Z,100.00
2022-11-10T08:00:52.546Z,100.00
2022-11-10T08:03:21.540Z,100.00
2022-11-10T08:05:48.775Z,100.00
2022-11-10T08:08:15.280Z,100.00
2022-11-10T08:10:42.146Z,100.00
2022-11-10T08:13:10.396Z,100.00
2022-11-10T08:22:26.683Z,100.00
2022-11-10T08:24:53.231Z,100.00
2022-11-10T08:27:19.723Z,100.00
2022-11-10T08:29:46.176Z,100.00
2022-11-10T08:32:12.910Z,100.00
2022-11-10T08:38:15.255Z,100.00
2022-11-10T08:43:38.722Z,100.00
2022-11-10T08:46:36.114Z,100.00
2022-11-10T08:49:05.087Z,100.00
2022-11-10T08:51:36.322Z,100.00
2022-11-10T08:54:05.662Z,100.00
2022-11-10T08:56:32.344Z,100.00
2022-11-10T08:58:58.818Z,100.00
2022-11-10T09:01:25.364Z,100.00
2022-11-10T09:03:52.124Z,100.00
2022-11-10T09:06:18.752Z,100.00
2022-11-10T09:08:45.230Z,100.00
2022-11-10T09:11:13.870Z,100.00
2022-11-10T09:13:40.422Z,100.00
2022-11-10T09:16:07.066Z,100.00
2022-11-10T09:18:33.663Z,100.00
2022-11-10T09:21:02.789Z,100.00
2022-11-10T09:23:29.368Z,100.00
2022-11-10T09:25:56.190Z,100.00
2022-11-10T09:28:23.614Z,100.00
2022-11-10T09:30:51.427Z,100.00
2022-11-10T09:33:18.085Z,100.00
2022-11-10T09:35:46.296Z,100.00
2022-11-10T09:38:12.844Z,100.00
2022-11-10T09:41:04.405Z,100.00
2022-11-10T09:43:59.115Z,100.00
2022-11-10T09:46:34.585Z,100.00
2022-11-10T09:49:12.665Z,100.00
2022-11-10T09:51:45.462Z,100.00
2022-11-10T09:55:00.297Z,100.00
2022-11-10T09:57:27.183Z,100.00
2022-11-10T09:59:54.181Z,100.00
2022-11-10T10:02:23.675Z,100.00
2022-11-10T10:05:30.905Z,100.00
2022-11-10T10:08:20.662Z,100.00
2022-11-10T10:11:19.638Z,100.00
2022-11-10T10:13:59.831Z,100.00
2022-11-10T10:16:54.074Z,100.00
2022-11-10T10:19:47.578Z,100.00
2022-11-10T10:22:39.066Z,100.00
2022-11-10T10:25:12.076Z,100.00
2022-11-10T10:27:40.723Z,100.00
2022-11-10T10:30:18.360Z,100.00
2022-11-10T10:32:45.020Z,100.00
2022-11-10T10:35:16.192Z,100.00
2022-11-10T10:37:49.831Z,100.00
2022-11-10T10:40:21.225Z,100.00
2022-11-10T10:42:48.185Z,100.00
2022-11-10T10:45:26.300Z,100.00
2022-11-10T10:47:54.714Z,100.00
2022-11-10T10:50:35.375Z,100.00
2022-11-10T10:53:28.164Z,100.00
2022-11-10T10:56:05.316Z,100.00
2022-11-10T10:58:35.411Z,100.00
2022-11-10T11:01:15.681Z,100.00
2022-11-10T11:03:47.377Z,100.00
2022-11-10T11:06:16.930Z,100.00
2022-11-10T11:08:58.316Z,100.00
2022-11-10T11:11:29.437Z,100.00
2022-11-10T11:14:14.709Z,100.00
2022-11-10T11:16:54.710Z,100.00
2022-11-10T11:19:23.459Z,100.00
2022-11-10T11:22:04.121Z,100.00
2022-11-10T11:24:43.723Z,100.00
2022-11-10T11:27:28.153Z,100.00
2022-11-10T11:30:08.869Z,100.00
2022-11-10T11:33:16.393Z,100.00
2022-11-10T11:36:01.830Z,100.00
2022-11-10T11:38:40.722Z,100.00
2022-11-10T11:41:27.192Z,100.00
2022-11-10T11:44:24.692Z,100.00
2022-11-10T11:47:05.628Z,100.00
2022-11-10T11:49:46.179Z,100.00
2022-11-10T11:52:27.626Z,100.00
2022-11-10T11:55:25.888Z,100.00
2022-11-10T11:58:19.627Z,100.00
2022-11-10T12:00:57.438Z,100.00
2022-11-10T12:08:45.296Z,100.00
2022-11-10T12:11:30.267Z,100.00
2022-11-10T12:14:13.817Z,100.00
2022-11-10T12:16:45.407Z,100.00
2022-11-10T12:19:36.636Z,100.00
2022-11-10T12:22:33.992Z,100.00
2022-11-10T12:25:07.056Z,100.00
2022-11-10T12:27:45.244Z,100.00
2022-11-10T12:30:14.655Z,100.00
2022-11-10T12:32:47.407Z,100.00
2022-11-10T12:35:21.606Z,100.00
2022-11-10T12:39:07.306Z,100.00
2022-11-10T12:41:54.658Z,100.00
2022-11-10T12:44:27.393Z,100.00
2022-11-10T12:46:57.323Z,100.00
2022-11-10T12:49:35.806Z,100.00
2022-11-10T12:52:17.162Z,100.00
2022-11-10T12:54:45.838Z,100.00
2022-11-10T12:57:15.798Z,100.00
2022-11-10T12:59:57.068Z,100.00
2022-11-10T13:02:38.390Z,100.00
2022-11-10T13:05:13.941Z,100.00
2022-11-10T13:07:44.702Z,100.00
2022-11-10T13:10:25.247Z,100.00
2022-11-10T13:13:21.896Z,100.00
2022-11-10T13:15:51.508Z,99.09
2022-11-10T13:18:44.213Z,98.85
2022-11-10T13:21:10.922Z,99.64
2022-11-10T13:23:37.836Z,99.19
2022-11-10T13:26:06.245Z,100.00
2022-11-10T13:28:47.937Z,100.00
2022-11-10T13:31:26.604Z,100.00
2022-11-10T13:34:27.030Z,100.00
2022-11-10T13:36:53.575Z,99.94
2022-11-10T13:39:19.968Z,99.57
2022-11-10T13:41:47.677Z,99.97
2022-11-10T13:44:23.992Z,100.00
2022-11-10T13:47:09.013Z,100.00
2022-11-10T13:50:02.583Z,100.00
2022-11-10T13:52:47.289Z,100.00
2022-11-10T13:55:47.412Z,100.00
2022-11-10T13:58:28.795Z,100.00
2022-11-10T14:01:17.593Z,100.00
2022-11-10T14:03:50.739Z,100.00
2022-11-10T14:06:27.547Z,99.77
2022-11-10T14:09:06.084Z,100.00
2022-11-10T14:11:39.334Z,100.00
2022-11-10T14:14:33.724Z,100.00
2022-11-10T14:17:00.856Z,100.00
2022-11-10T14:19:39.949Z,100.00
2022-11-10T14:22:26.800Z,100.00
2022-11-10T14:25:04.516Z,99.81
2022-11-10T14:27:34.072Z,100.00
2022-11-10T14:30:07.080Z,100.00
2022-11-10T14:32:33.639Z,99.34
2022-11-10T14:35:00.779Z,99.69
2022-11-10T14:37:28.760Z,99.25
2022-11-10T14:39:57.932Z,100.00
2022-11-10T14:42:27.048Z,100.00
2022-11-10T14:45:22.963Z,100.00
2022-11-10T14:47:58.255Z,100.00
2022-11-10T14:50:34.932Z,99.87
2022-11-10T14:53:06.374Z,100.00
2022-11-10T14:55:35.716Z,100.00
2022-11-10T14:58:11.799Z,100.00
2022-11-10T15:00:39.626Z,99.96
2022-11-10T15:03:07.951Z,99.60
2022-11-10T15:05:35.139Z,98.25
2022-11-10T15:08:03.933Z,98.53
2022-11-10T15:10:50.009Z,98.69
2022-11-10T15:13:37.949Z,99.22
2022-11-10T15:16:36.212Z,98.64
2022-11-10T15:19:29.867Z,98.17
2022-11-10T15:21:56.686Z,97.97
2022-11-10T15:24:28.030Z,98.54
2022-11-10T15:26:54.623Z,98.53
2022-11-10T15:29:36.838Z,98.95
2022-11-10T15:32:03.705Z,98.81
2022-11-10T15:34:45.334Z,98.75
2022-11-10T15:37:20.899Z,99.13
2022-11-10T15:39:49.861Z,98.10
2022-11-10T15:42:21.997Z,98.99
2022-11-10T15:44:49.031Z,99.54
2022-11-10T15:47:21.225Z,99.18
2022-11-10T15:49:48.453Z,98.40
2022-11-10T15:52:23.905Z,99.02
2022-11-10T15:55:02.810Z,98.52
2022-11-10T15:57:29.485Z,97.37
2022-11-10T15:59:56.165Z,97.90
2022-11-10T16:02:25.639Z,97.76
2022-11-10T16:05:07.980Z,97.26
2022-11-10T16:07:47.037Z,97.26
2022-11-10T16:10:19.418Z,96.98
2022-11-10T16:12:47.660Z,96.81
2022-11-10T16:15:21.483Z,97.15
2022-11-10T16:17:48.110Z,97.49
2022-11-10T16:20:16.198Z,97.13
2022-11-10T16:22:51.684Z,97.29
2022-11-10T16:25:25.217Z,97.82
2022-11-10T16:27:54.401Z,98.09
2022-11-10T16:30:20.986Z,98.22
2022-11-10T16:32:49.953Z,99.37
2022-11-10T16:35:16.501Z,98.75
2022-11-10T16:37:45.531Z,99.39
2022-11-10T16:40:21.222Z,100.00
2022-11-10T16:42:47.956Z,99.40
2022-11-10T16:45:23.724Z,99.35
2022-11-10T16:47:55.393Z,99.06
2022-11-10T16:50:32.435Z,99.85
2022-11-10T16:53:01.431Z,99.77
2022-11-10T16:55:28.091Z,98.96
2022-11-10T16:57:54.735Z,99.70
2022-11-10T17:00:21.874Z,98.95
2022-11-10T17:03:00.073Z,98.94
2022-11-10T17:05:28.164Z,98.13
2022-11-10T17:07:55.009Z,97.94
2022-11-10T17:10:22.466Z,97.97
2022-11-10T17:12:49.121Z,97.56
2022-11-10T17:15:16.424Z,98.03
2022-11-10T17:17:47.850Z,99.76
2022-11-10T17:33:32.202Z,100.00
2022-11-10T17:46:33.226Z,100.00
2022-11-10T17:49:02.922Z,100.00
2022-11-10T17:51:31.201Z,100.00
2022-11-10T17:53:58.936Z,100.00
2022-11-10T17:56:29.555Z,100.00
2022-11-10T17:58:59.290Z,100.00
2022-11-10T18:01:25.962Z,100.00
2022-11-10T18:03:52.541Z,100.00
2022-11-10T18:06:20.416Z,100.00
2022-11-10T18:08:50.078Z,100.00
2022-11-10T18:11:18.224Z,100.00
2022-11-10T18:13:45.161Z,100.00
2022-11-10T18:16:16.952Z,100.00
2022-11-10T18:18:43.562Z,99.90
2022-11-10T18:21:10.758Z,99.66
2022-11-10T18:23:37.351Z,99.21
2022-11-10T18:26:08.491Z,99.69
2022-11-10T18:28:35.969Z,100.00
2022-11-10T18:31:10.498Z,100.00
2022-11-10T18:33:37.428Z,99.28
2022-11-10T18:36:04.244Z,99.59
2022-11-10T18:38:30.804Z,99.43
2022-11-10T18:41:22.790Z,99.37
2022-11-10T18:43:49.368Z,99.35
2022-11-10T18:46:15.917Z,99.37
2022-11-10T18:48:46.283Z,100.00
2022-11-10T18:51:12.888Z,100.00
2022-11-10T18:53:42.159Z,100.00
2022-11-10T18:56:09.045Z,100.00
2022-11-10T18:58:35.906Z,100.00
2022-11-10T19:01:07.027Z,100.00
2022-11-10T19:03:34.778Z,100.00
2022-11-10T19:06:04.377Z,100.00
2022-11-10T19:08:30.974Z,100.00
2022-11-10T19:10:58.027Z,100.00
2022-11-10T19:13:25.055Z,100.00
2022-11-10T19:15:55.768Z,100.00
2022-11-10T19:18:25.548Z,100.00
2022-11-10T19:20:52.200Z,100.00
2022-11-10T19:23:18.850Z,100.00
2022-11-10T19:25:45.490Z,100.00
2022-11-10T19:28:12.354Z,100.00
2022-11-10T19:30:39.363Z,100.00
2022-11-10T19:33:07.801Z,100.00
2022-11-10T19:35:34.369Z,100.00
2022-11-10T19:38:01.028Z,100.00
2022-11-10T19:40:28.210Z,100.00
2022-11-10T19:42:54.857Z,100.00
2022-11-10T19:45:21.447Z,100.00
2022-11-10T19:47:48.071Z,100.00
2022-11-10T19:50:14.989Z,100.00
2022-11-10T19:52:47.226Z,100.00
2022-11-10T19:55:14.024Z,100.00
2022-11-10T19:57:40.663Z,100.00
2022-11-10T20:00:08.393Z,100.00
2022-11-10T20:02:35.545Z,100.00
2022-11-10T20:05:16.188Z,100.00
2022-11-10T20:08:09.573Z,100.00
2022-11-10T20:10:40.307Z,100.00
2022-11-10T20:13:07.847Z,100.00
2022-11-10T20:15:39.158Z,100.00
2022-11-10T20:18:06.244Z,100.00
2022-11-10T20:20:33.023Z,100.00
2022-11-10T20:23:03.980Z,100.00
2022-11-10T20:25:30.686Z,100.00
2022-11-10T20:27:57.978Z,100.00
2022-11-10T20:30:25.113Z,100.00
2022-11-10T20:32:51.690Z,100.00
2022-11-10T20:35:18.339Z,100.00
2022-11-10T20:37:44.912Z,100.00
2022-11-10T20:40:42.437Z,100.00
2022-11-10T20:43:03.275Z,100.00
2022-11-10T20:45:29.880Z,100.00
2022-11-10T20:47:57.594Z,100.00
2022-11-10T20:50:24.662Z,100.00
2022-11-10T20:52:51.466Z,100.00
2022-11-10T20:55:18.662Z,100.00
2022-11-10T20:57:48.775Z,100.00
2022-11-10T21:00:15.786Z,100.00
2022-11-10T21:02:43.384Z,100.00
2022-11-10T21:05:09.979Z,100.00
2022-11-10T21:07:36.549Z,100.00
2022-11-10T21:10:03.357Z,100.00
2022-11-10T21:12:48.619Z,100.00
2022-11-10T21:15:15.539Z,100.00
2022-11-10T21:17:44.191Z,100.00
2022-11-10T21:20:11.382Z,100.00
2022-11-10T21:22:38.073Z,100.00
2022-11-10T21:25:06.095Z,100.00
2022-11-10T21:27:32.891Z,100.00
2022-11-10T21:29:59.501Z,100.00
2022-11-10T21:32:26.142Z,100.00
2022-11-10T21:34:52.742Z,100.00
2022-11-10T21:37:19.312Z,100.00
2022-11-10T21:39:45.862Z,100.00
2022-11-10T21:42:12.492Z,100.00
2022-11-10T21:44:39.053Z,100.00
2022-11-10T21:47:05.666Z,100.00
2022-11-10T21:49:33.057Z,100.00
2022-11-10T21:51:59.772Z,100.00
2022-11-10T21:54:26.501Z,100.00
2022-11-10T21:56:56.197Z,100.00
2022-11-10T21:59:22.868Z,100.00
2022-11-10T22:01:49.464Z,100.00
2022-11-10T22:04:16.132Z,100.00
2022-11-10T22:07:01.388Z,100.00
2022-11-10T22:09:46.710Z,100.00
2022-11-10T22:12:32.559Z,100.00
2022-11-10T22:15:17.747Z,100.00
2022-11-10T22:18:03.104Z,100.00
2022-11-10T22:20:29.720Z,100.00
2022-11-10T22:22:56.313Z,100.00
2022-11-10T22:25:23.028Z,100.00
2022-11-10T22:27:52.456Z,100.00
2022-11-10T22:30:19.081Z,100.00
2022-11-10T22:32:45.604Z,100.00
2022-11-10T22:35:32.167Z,100.00
2022-11-10T22:38:03.272Z,100.00
2022-11-10T22:40:48.517Z,100.00
2022-11-10T22:43:33.945Z,100.00
2022-11-10T22:46:00.519Z,100.00
2022-11-10T22:48:27.152Z,100.00
2022-11-10T22:50:58.086Z,100.00
2022-11-10T22:53:25.581Z,100.00
2022-11-10T22:55:52.557Z,100.00
2022-11-10T22:58:19.178Z,100.00
2022-11-10T23:00:48.799Z,100.00
2022-11-10T23:03:15.435Z,100.00
2022-11-10T23:05:41.971Z,100.00
2022-11-10T23:08:08.543Z,100.00
2022-11-10T23:10:35.226Z,100.00
2022-11-10T23:13:01.797Z,100.00
2022-11-10T23:15:28.438Z,100.00
2022-11-10T23:17:55.181Z,100.00
2022-11-10T23:20:21.779Z,100.00
2022-11-10T23:22:48.311Z,100.00
2022-11-10T23:25:15.062Z,100.00
2022-11-10T23:27:41.659Z,100.00
